Terminal Aerodrome Forecast
Issued by NWS Bismarck, ND

Home | Current Version | Previous Version | Graphics & Text | Print | Product List | Glossary On
Versions: 1 2 3 4 5 6 7 8 9 10 11 12 13
000
FTUS43 KBIS 221731
TAFISN
TAF
KISN 221731Z 2218/2318 14012G17KT P6SM SCT250
     FM230200 13007KT P6SM SCT080 SCT250
     FM230900 10006KT P6SM BKN080=

USA.gov is the U.S. government's official web portal to all federal, state and local government web resources and services.